KRH65P EGVN-EGSS
Flight info
| Callsign | KRH65P |
|---|---|
| Flight time | 0h 25m |
| Altitude | 9000 |
| Route | CPT M183 SILVA |
| Aircraft | A332/H-SDE3GHIJ2J3J5M1RVWXY/LB2D1 |
Departure
| Time | 2026-05-04 17:16 |
|---|---|
| Airport | RAF Brize Norton (EGVN) |
Arrival
| Time | 2026-05-04 17:42 |
|---|---|
| Airport | London Stansted Airport (EGSS) |
| Time | Latitude | Longitude | Altitude | Speed | Heading |
|---|---|---|---|---|---|
| 2026-05-04 17:05 | 51.75863 | -1.57385 | 268 ft | 0 kts | 77° |
| 2026-05-04 17:10 | 51.75910 | -1.57262 | 268 ft | 7 kts | 59° |
| 2026-05-04 17:11 | 51.75911 | -1.57208 | 268 ft | 13 kts | 97° |
| 2026-05-04 17:11 | 51.75832 | -1.56996 | 268 ft | 31 kts | 133° |
| 2026-05-04 17:11 | 51.75404 | -1.56727 | 268 ft | 34 kts | 165° |
| 2026-05-04 17:12 | 51.75294 | -1.56724 | 267 ft | 6 kts | 234° |
| 2026-05-04 17:12 | 51.75214 | -1.57123 | 267 ft | 36 kts | 253° |
| 2026-05-04 17:13 | 51.74912 | -1.58766 | 270 ft | 50 kts | 253° |
| 2026-05-04 17:14 | 51.74674 | -1.60061 | 267 ft | 21 kts | 254° |
| 2026-05-04 17:14 | 51.74616 | -1.60323 | 269 ft | 19 kts | 231° |
| 2026-05-04 17:14 | 51.74486 | -1.60184 | 268 ft | 12 kts | 99° |
| 2026-05-04 17:15 | 51.74506 | -1.60083 | 268 ft | 7 kts | 51° |
| 2026-05-04 17:15 | 51.74647 | -1.60093 | 268 ft | 17 kts | 17° |
| 2026-05-04 17:16 | 51.74751 | -1.59647 | 265 ft | 76 kts | 73° |
| 2026-05-04 17:16 | 51.75592 | -1.55049 | 1403 ft | 210 kts | 76° |
| 2026-05-04 17:17 | 51.75872 | -1.52606 | 2291 ft | 232 kts | 72° |
| 2026-05-04 17:17 | 51.77374 | -1.44459 | 5564 ft | 269 kts | 74° |
| 2026-05-04 17:18 | 51.77888 | -1.41512 | 6793 ft | 275 kts | 75° |
| 2026-05-04 17:18 | 51.78934 | -1.35391 | 8605 ft | 289 kts | 76° |
| 2026-05-04 17:19 | 51.80009 | -1.29029 | 9020 ft | 307 kts | 76° |
| 2026-05-04 17:19 | 51.81264 | -1.21528 | 9004 ft | 372 kts | 75° |
| 2026-05-04 17:20 | 51.82625 | -1.13408 | 9023 ft | 375 kts | 75° |
| 2026-05-04 17:20 | 51.83979 | -1.05273 | 9021 ft | 375 kts | 75° |
| 2026-05-04 17:20 | 51.84678 | -1.01205 | 9024 ft | 375 kts | 72° |
| 2026-05-04 17:21 | 51.86523 | -0.93314 | 9025 ft | 376 kts | 68° |
| 2026-05-04 17:21 | 51.88465 | -0.85445 | 9023 ft | 376 kts | 68° |
| 2026-05-04 17:22 | 51.89428 | -0.81520 | 9025 ft | 376 kts | 68° |
| 2026-05-04 17:22 | 51.90393 | -0.77574 | 9023 ft | 377 kts | 68° |
| 2026-05-04 17:23 | 51.93275 | -0.65732 | 9023 ft | 376 kts | 68° |
| 2026-05-04 17:23 | 51.94231 | -0.61790 | 9024 ft | 377 kts | 68° |
| 2026-05-04 17:23 | 51.96131 | -0.53931 | 9022 ft | 376 kts | 68° |
| 2026-05-04 17:24 | 51.97084 | -0.49978 | 9022 ft | 377 kts | 68° |
| 2026-05-04 17:24 | 51.99524 | -0.38260 | 9038 ft | 336 kts | 86° |
| 2026-05-04 17:25 | 51.99562 | -0.34608 | 9035 ft | 312 kts | 91° |
| 2026-05-04 17:25 | 51.99457 | -0.27820 | 9027 ft | 297 kts | 92° |
| 2026-05-04 17:26 | 51.99356 | -0.21107 | 9024 ft | 298 kts | 92° |
| 2026-05-04 17:26 | 51.99219 | -0.11016 | 9024 ft | 298 kts | 92° |
| 2026-05-04 17:27 | 51.99127 | -0.04302 | 9023 ft | 293 kts | 92° |
| 2026-05-04 17:27 | 51.99184 | 0.01926 | 9021 ft | 265 kts | 76° |
| 2026-05-04 17:28 | 52.01452 | 0.06124 | 9025 ft | 253 kts | 14° |
| 2026-05-04 17:29 | 52.06660 | 0.06701 | 8605 ft | 256 kts | 359° |
| 2026-05-04 17:29 | 52.11928 | 0.04865 | 7067 ft | 267 kts | 310° |
| 2026-05-04 17:30 | 52.11552 | -0.03190 | 6660 ft | 264 kts | 221° |
| 2026-05-04 17:31 | 52.08048 | -0.04703 | 5026 ft | 267 kts | 186° |
| 2026-05-04 17:31 | 52.02525 | -0.05182 | 3093 ft | 265 kts | 182° |
| 2026-05-04 17:32 | 51.98808 | -0.05170 | 3000 ft | 268 kts | 191° |
| 2026-05-04 17:33 | 51.93393 | -0.07530 | 2995 ft | 267 kts | 197° |
| 2026-05-04 17:33 | 51.91634 | -0.08513 | 3001 ft | 267 kts | 200° |
| 2026-05-04 17:34 | 51.86413 | -0.11674 | 2908 ft | 268 kts | 201° |
| 2026-05-04 17:34 | 51.84616 | -0.12280 | 2565 ft | 269 kts | 178° |
| 2026-05-04 17:35 | 51.79239 | -0.09920 | 2515 ft | 265 kts | 160° |
| 2026-05-04 17:35 | 51.76024 | -0.07276 | 2517 ft | 258 kts | 132° |
| 2026-05-04 17:35 | 51.75087 | -0.04913 | 2516 ft | 250 kts | 105° |
| 2026-05-04 17:36 | 51.74978 | -0.02295 | 2519 ft | 226 kts | 77° |
| 2026-05-04 17:36 | 51.75437 | 0.00019 | 2519 ft | 209 kts | 66° |
| 2026-05-04 17:36 | 51.75985 | 0.02100 | 2524 ft | 193 kts | 65° |
| 2026-05-04 17:36 | 51.76490 | 0.03986 | 2517 ft | 174 kts | 65° |
| 2026-05-04 17:37 | 51.76954 | 0.05670 | 2494 ft | 153 kts | 59° |
| 2026-05-04 17:37 | 51.77537 | 0.06958 | 2503 ft | 133 kts | 47° |
| 2026-05-04 17:37 | 51.78142 | 0.07956 | 2519 ft | 117 kts | 44° |
| 2026-05-04 17:37 | 51.78724 | 0.08839 | 2497 ft | 114 kts | 42° |
| 2026-05-04 17:38 | 51.79312 | 0.09714 | 2497 ft | 115 kts | 42° |
| 2026-05-04 17:38 | 51.79896 | 0.10589 | 2479 ft | 115 kts | 43° |
| 2026-05-04 17:38 | 51.80486 | 0.11481 | 2353 ft | 116 kts | 43° |
| 2026-05-04 17:38 | 51.81074 | 0.12365 | 2179 ft | 114 kts | 40° |
| 2026-05-04 17:39 | 51.82239 | 0.14105 | 1859 ft | 113 kts | 41° |
| 2026-05-04 17:39 | 51.82813 | 0.14964 | 1721 ft | 114 kts | 41° |
| 2026-05-04 17:39 | 51.83403 | 0.15847 | 1550 ft | 114 kts | 41° |
| 2026-05-04 17:40 | 51.83979 | 0.16709 | 1398 ft | 115 kts | 41° |
| 2026-05-04 17:40 | 51.84565 | 0.17587 | 1237 ft | 114 kts | 42° |
| 2026-05-04 17:40 | 51.85152 | 0.18468 | 1082 ft | 116 kts | 40° |
| 2026-05-04 17:40 | 51.85744 | 0.19355 | 915 ft | 115 kts | 41° |
| 2026-05-04 17:41 | 51.86338 | 0.20244 | 750 ft | 117 kts | 41° |
| 2026-05-04 17:41 | 51.86938 | 0.21137 | 580 ft | 116 kts | 40° |
| 2026-05-04 17:41 | 51.87534 | 0.22015 | 403 ft | 116 kts | 41° |
| 2026-05-04 17:41 | 51.88111 | 0.22865 | 355 ft | 102 kts | 44° |
| 2026-05-04 17:42 | 51.88500 | 0.23476 | 351 ft | 50 kts | 43° |
| 2026-05-04 17:42 | 51.88617 | 0.23654 | 348 ft | 3 kts | 44° |
| 2026-05-04 17:42 | 51.88688 | 0.23742 | 351 ft | 6 kts | 15° |
| 2026-05-04 17:42 | 51.88730 | 0.23738 | 354 ft | 4 kts | 338° |
| 2026-05-04 17:43 | 51.88763 | 0.23687 | 353 ft | 9 kts | 313° |
| 2026-05-04 17:43 | 51.88801 | 0.23595 | 353 ft | 10 kts | 283° |
| 2026-05-04 17:43 | 51.88760 | 0.23478 | 355 ft | 13 kts | 225° |
| 2026-05-04 17:43 | 51.88690 | 0.23369 | 357 ft | 15 kts | 221° |
| 2026-05-04 17:44 | 51.88553 | 0.23170 | 359 ft | 35 kts | 223° |
| 2026-05-04 17:44 | 51.88370 | 0.22892 | 354 ft | 34 kts | 223° |
| 2026-05-04 17:44 | 51.88268 | 0.22737 | 354 ft | 7 kts | 225° |
| 2026-05-04 17:44 | 51.88257 | 0.22686 | 354 ft | 4 kts | 272° |
| 2026-05-04 17:45 | 51.88276 | 0.22626 | 335 ft | 9 kts | 310° |
| 2026-05-04 17:45 | 51.88280 | 0.22602 | 336 ft | 3 kts | 275° |
| 2026-05-04 17:45 | 51.88250 | 0.22542 | 338 ft | 7 kts | 206° |
| 2026-05-04 17:45 | 51.88241 | 0.22539 | 337 ft | 0 kts | 193° |
| 2026-05-04 17:46 | 51.88240 | 0.22538 | 337 ft | 0 kts | 196° |
| 2026-05-04 17:46 | 51.88218 | 0.22519 | 336 ft | 0 kts | 205° |